Time;durP1;ratioP1;P1;durP2;ratioP2;P2;SDS_P1;SDS_P2;PMS_P1;PMS_P2;Temp;Humidity;BMP_temperature;BMP_pressure;BME280_temperature;BME280_humidity;BME280_pressure;Samples;Min_cycle;Max_cycle;Signal;HPM_P1;HPM_P2
2022/07/28 00:00:33;;;;;;;3.00;1.57;;;27.10;40.70;;;;;;5050496;28;20462;-81
2022/07/28 00:02:59;;;;;;;1.97;1.33;;;27.10;40.80;;;;;;5050781;28;20421;-81
2022/07/28 00:05:27;;;;;;;3.77;1.17;;;27.10;40.70;;;;;;5068002;28;20401;-84
2022/07/28 00:07:54;;;;;;;1.40;1.20;;;27.10;40.80;;;;;;5055001;28;20453;-83
2022/07/28 00:10:24;;;;;;;1.67;1.40;;;27.10;40.80;;;;;;5046589;28;20426;-82
2022/07/28 00:12:51;;;;;;;1.70;1.40;;;27.10;40.80;;;;;;5072363;28;20436;-82
2022/07/28 00:15:17;;;;;;;1.43;1.33;;;27.10;40.80;;;;;;5072733;28;20406;-82
2022/07/28 00:17:43;;;;;;;1.90;1.40;;;27.10;40.90;;;;;;5061925;28;20456;-82
2022/07/28 00:20:10;;;;;;;2.37;1.20;;;27.10;40.90;;;;;;5074906;28;20417;-81
2022/07/28 00:22:44;;;;;;;1.60;1.20;;;27.10;40.90;;;;;;5073976;28;20514;-81
2022/07/28 00:25:10;;;;;;;1.80;1.13;;;27.00;40.80;;;;;;5074222;28;20444;-81
2022/07/28 00:27:38;;;;;;;2.57;1.20;;;27.10;40.90;;;;;;5092108;28;20816;-81
2022/07/28 00:30:06;;;;;;;4.10;1.83;;;27.10;40.90;;;;;;5080951;28;20428;-81
2022/07/28 00:32:32;;;;;;;2.27;1.20;;;27.10;40.80;;;;;;5074472;28;20432;-81
2022/07/28 00:34:59;;;;;;;2.60;1.17;;;27.10;40.80;;;;;;5074937;28;20432;-80
2022/07/28 00:37:25;;;;;;;2.30;1.27;;;27.10;40.70;;;;;;5100221;28;20420;-81
2022/07/28 00:39:52;;;;;;;2.10;1.60;;;27.10;40.70;;;;;;5100281;28;20430;-81
2022/07/28 00:42:19;;;;;;;2.47;1.30;;;27.10;40.70;;;;;;5084779;28;20450;-81
2022/07/28 00:44:46;;;;;;;1.20;1.10;;;27.10;40.70;;;;;;5103923;28;20453;-81
2022/07/28 00:47:13;;;;;;;1.73;1.03;;;27.10;40.70;;;;;;5093189;28;20448;-81
2022/07/28 00:49:39;;;;;;;1.97;1.23;;;27.10;40.70;;;;;;5082650;28;20424;-81
2022/07/28 00:52:08;;;;;;;2.60;1.20;;;27.10;40.70;;;;;;5107856;28;20409;-81
2022/07/28 00:54:35;;;;;;;1.83;1.20;;;27.00;40.60;;;;;;5075631;28;20456;-81
2022/07/28 00:57:03;;;;;;;1.93;1.13;;;27.00;40.70;;;;;;5061289;28;20428;-81
2022/07/28 00:59:30;;;;;;;2.07;1.10;;;27.00;40.60;;;;;;5050079;28;20439;-81
2022/07/28 01:01:57;;;;;;;2.70;1.17;;;27.00;40.60;;;;;;5082619;28;20443;-81
2022/07/28 01:04:24;;;;;;;1.77;1.10;;;27.00;40.50;;;;;;5081771;28;20457;-81
2022/07/28 01:07:22;;;;;;;1.37;1.00;;;27.00;40.50;;;;;;5089076;28;20490;-82
2022/07/28 01:10:27;;;;;;;1.83;1.20;;;27.00;40.60;;;;;;5073446;28;20428;-82
2022/07/28 01:13:28;;;;;;;3.03;1.40;;;26.90;40.50;;;;;;5029039;28;20446;-82
2022/07/28 01:16:00;;;;;;;1.63;1.00;;;26.90;40.50;;;;;;4981169;28;20434;-81
2022/07/28 01:18:35;;;;;;;1.60;1.30;;;26.90;40.60;;;;;;5017619;28;20459;-81
2022/07/28 01:21:13;;;;;;;1.53;1.20;;;26.90;40.60;;;;;;5017445;28;20421;-82
2022/07/28 01:24:13;;;;;;;1.70;1.20;;;26.90;40.60;;;;;;5034481;28;20427;-82
2022/07/28 01:27:03;;;;;;;1.70;1.17;;;26.90;40.60;;;;;;5007445;28;20542;-82
2022/07/28 01:30:07;;;;;;;1.80;1.47;;;26.90;40.60;;;;;;4998481;28;20428;-82
2022/07/28 01:33:01;;;;;;;1.30;1.20;;;26.80;40.50;;;;;;5014880;28;20990;-82
2022/07/28 01:35:32;;;;;;;1.30;1.10;;;26.80;40.50;;;;;;4990018;28;20436;-82
2022/07/28 01:38:02;;;;;;;1.60;1.20;;;26.80;40.50;;;;;;4997560;28;20423;-82
2022/07/28 01:40:33;;;;;;;2.10;1.10;;;26.80;40.50;;;;;;5014760;28;20479;-82
2022/07/28 01:43:05;;;;;;;2.10;1.13;;;26.80;40.50;;;;;;4995565;28;20427;-82
2022/07/28 01:45:33;;;;;;;1.50;1.40;;;26.80;40.50;;;;;;5010746;28;20435;-82
2022/07/28 01:48:07;;;;;;;4.13;1.40;;;26.80;40.50;;;;;;5006621;28;20464;-82
2022/07/28 01:50:36;;;;;;;1.30;1.13;;;26.80;40.50;;;;;;5035617;28;20988;-82
2022/07/28 01:53:04;;;;;;;6.30;1.63;;;26.80;40.50;;;;;;5029359;28;20424;-82
2022/07/28 01:55:31;;;;;;;3.00;1.67;;;26.80;40.50;;;;;;5025894;28;20454;-82
2022/07/28 01:57:59;;;;;;;2.23;1.20;;;26.70;40.50;;;;;;5033080;28;20501;-82
2022/07/28 02:00:28;;;;;;;2.57;1.30;;;26.80;40.50;;;;;;5033513;28;20526;-82
2022/07/28 02:03:00;;;;;;;1.87;1.20;;;26.70;40.50;;;;;;5047563;28;20420;-82
2022/07/28 02:05:27;;;;;;;1.70;1.60;;;26.70;40.50;;;;;;5064739;28;20728;-82
2022/07/28 02:07:56;;;;;;;1.50;1.30;;;26.70;40.50;;;;;;5080837;28;20764;-82
2022/07/28 02:10:26;;;;;;;1.60;1.43;;;26.70;40.40;;;;;;5096925;28;20441;-82
2022/07/28 02:12:55;;;;;;;1.57;1.33;;;26.70;40.50;;;;;;5098415;28;20421;-82
2022/07/28 02:15:22;;;;;;;2.03;1.20;;;26.70;40.50;;;;;;5081549;28;20395;-82
2022/07/28 02:17:52;;;;;;;1.83;1.50;;;26.70;40.40;;;;;;5098156;28;20408;-82
2022/07/28 02:20:21;;;;;;;2.57;1.27;;;26.70;40.50;;;;;;5097791;28;20416;-82
2022/07/28 02:22:49;;;;;;;1.60;1.30;;;26.70;40.50;;;;;;5097456;28;20395;-82
2022/07/28 02:25:18;;;;;;;3.10;1.20;;;26.70;40.50;;;;;;5097128;28;20407;-82
2022/07/28 02:28:00;;;;;;;1.57;1.30;;;26.70;40.40;;;;;;5080160;28;20542;-82
2022/07/28 02:30:49;;;;;;;2.17;1.23;;;26.70;40.50;;;;;;5115202;28;20392;-82
2022/07/28 02:33:19;;;;;;;2.77;1.30;;;26.70;40.50;;;;;;5114997;28;20423;-81
2022/07/28 02:35:57;;;;;;;2.53;1.50;;;26.70;40.60;;;;;;5097714;28;20412;-82
2022/07/28 02:38:29;;;;;;;2.40;1.10;;;26.70;40.60;;;;;;5098062;28;20470;-82
2022/07/28 02:41:14;;;;;;;1.47;1.10;;;26.70;40.60;;;;;;5097085;28;20408;-82
2022/07/28 02:43:50;;;;;;;1.73;1.20;;;26.70;40.50;;;;;;5103823;28;20410;-82
2022/07/28 02:46:20;;;;;;;4.37;1.93;;;26.70;40.50;;;;;;5057052;28;20402;-81
2022/07/28 02:48:51;;;;;;;1.20;1.00;;;26.70;40.50;;;;;;5056800;28;20839;-82
2022/07/28 02:51:23;;;;;;;1.93;1.30;;;26.70;40.50;;;;;;5073864;28;20398;-82
2022/07/28 02:53:51;;;;;;;2.60;1.40;;;26.70;40.40;;;;;;5056244;28;20437;-82
2022/07/28 02:56:18;;;;;;;2.73;1.20;;;26.70;40.40;;;;;;5075272;28;20394;-81
2022/07/28 02:58:46;;;;;;;3.50;1.40;;;26.70;40.50;;;;;;5056725;28;20775;-83
2022/07/28 03:01:14;;;;;;;2.60;1.50;;;26.70;40.40;;;;;;5056010;28;20417;-82
2022/07/28 03:03:40;;;;;;;1.40;1.30;;;26.70;40.40;;;;;;5055661;28;20410;-82
2022/07/28 03:06:07;;;;;;;1.97;1.20;;;26.60;40.40;;;;;;5055811;28;20414;-82
2022/07/28 03:08:34;;;;;;;3.23;1.43;;;26.70;40.40;;;;;;5055894;28;20456;-82
2022/07/28 03:11:14;;;;;;;2.73;1.30;;;26.60;40.50;;;;;;5039040;28;20422;-82
2022/07/28 03:13:40;;;;;;;2.23;1.43;;;26.60;40.50;;;;;;5057654;28;20462;-81
2022/07/28 03:16:08;;;;;;;2.20;1.40;;;26.60;40.50;;;;;;5075583;28;20407;-82
2022/07/28 03:18:34;;;;;;;1.23;1.10;;;26.60;40.60;;;;;;5074926;28;20899;-83
2022/07/28 03:21:02;;;;;;;1.60;1.30;;;26.60;40.50;;;;;;5075402;28;20481;-82
2022/07/28 03:23:35;;;;;;;2.17;1.50;;;26.60;40.60;;;;;;5076382;28;20420;-82
2022/07/28 03:26:10;;;;;;;2.00;1.23;;;26.60;40.60;;;;;;5075484;28;20408;-82
2022/07/28 03:28:37;;;;;;;3.93;1.87;;;26.60;40.50;;;;;;5093493;28;20439;-82
2022/07/28 03:31:08;;;;;;;3.17;1.60;;;26.50;40.50;;;;;;5075488;28;20434;-82
2022/07/28 03:33:35;;;;;;;4.70;1.60;;;26.50;40.60;;;;;;5109451;28;20441;-82
2022/07/28 03:36:09;;;;;;;1.83;1.43;;;26.50;40.60;;;;;;5058752;28;20431;-82
2022/07/28 03:38:46;;;;;;;2.03;1.47;;;26.50;40.60;;;;;;5074752;28;20503;-82
2022/07/28 03:41:17;;;;;;;1.20;1.03;;;26.50;40.60;;;;;;5093645;28;20455;-82
2022/07/28 03:43:44;;;;;;;2.30;0.93;;;26.50;40.60;;;;;;5086613;28;20425;-82
2022/07/28 03:46:12;;;;;;;2.30;1.30;;;26.50;40.70;;;;;;5088994;28;20417;-82
2022/07/28 03:48:38;;;;;;;1.47;1.20;;;26.50;40.70;;;;;;5075008;28;20460;-82
2022/07/28 03:51:04;;;;;;;1.27;1.10;;;26.50;40.70;;;;;;5075280;28;20431;-82
2022/07/28 03:53:30;;;;;;;7.27;1.80;;;26.50;40.60;;;;;;5092908;28;20472;-82
2022/07/28 03:55:58;;;;;;;2.10;1.17;;;26.50;40.60;;;;;;5092695;28;20170;-82
2022/07/28 03:58:26;;;;;;;2.00;1.00;;;26.50;40.70;;;;;;5075150;28;20432;-82
2022/07/28 04:00:52;;;;;;;1.70;1.10;;;26.50;40.70;;;;;;5074694;28;20492;-82
2022/07/28 04:03:22;;;;;;;1.27;1.17;;;26.50;40.70;;;;;;5089277;28;20420;-82
2022/07/28 04:05:48;;;;;;;1.50;1.40;;;26.50;40.70;;;;;;5092617;28;20973;-82
2022/07/28 04:08:15;;;;;;;1.23;1.00;;;26.50;40.70;;;;;;5075097;28;20456;-82
2022/07/28 04:10:42;;;;;;;1.73;1.10;;;26.50;40.70;;;;;;5088158;28;20428;-82
2022/07/28 04:13:09;;;;;;;1.70;1.30;;;26.40;40.70;;;;;;5065768;28;20417;-81
2022/07/28 04:15:36;;;;;;;2.20;1.20;;;26.40;40.70;;;;;;5073906;28;20412;-82
2022/07/28 04:18:02;;;;;;;1.93;1.60;;;26.50;40.70;;;;;;5070700;28;20873;-82
2022/07/28 04:20:28;;;;;;;1.43;1.30;;;26.50;40.70;;;;;;5074085;28;20415;-82
2022/07/28 04:22:56;;;;;;;1.77;1.37;;;26.50;40.60;;;;;;5088771;28;20417;-82
2022/07/28 04:25:26;;;;;;;2.50;1.73;;;26.40;40.60;;;;;;5070693;28;20850;-82
2022/07/28 04:27:53;;;;;;;1.93;1.47;;;26.40;41.20;;;;;;5074365;28;20464;-81
2022/07/28 04:30:26;;;;;;;1.90;1.40;;;26.40;40.60;;;;;;5073674;28;20437;-82
2022/07/28 04:32:55;;;;;;;2.10;1.37;;;26.40;40.70;;;;;;5073338;28;20447;-82
2022/07/28 04:35:24;;;;;;;1.77;1.40;;;26.40;40.70;;;;;;5074343;28;20463;-82
2022/07/28 04:37:54;;;;;;;3.30;1.30;;;26.40;40.80;;;;;;5074922;28;20420;-82
2022/07/28 04:40:26;;;;;;;2.77;1.30;;;26.40;40.70;;;;;;5074508;28;20421;-82
2022/07/28 04:42:57;;;;;;;1.63;1.20;;;26.40;40.70;;;;;;5058723;28;20436;-82
2022/07/28 04:45:31;;;;;;;1.50;1.20;;;26.40;40.80;;;;;;5073930;28;20484;-83
2022/07/28 04:51:07;;;;;;;2.27;1.10;;;26.40;40.80;;;;;;5085977;28;20463;-82
2022/07/28 04:53:35;;;;;;;2.43;1.80;;;26.40;40.80;;;;;;5085157;28;20421;-82
2022/07/28 04:56:04;;;;;;;1.83;1.20;;;26.40;40.80;;;;;;5063018;28;20451;-82
2022/07/28 04:58:35;;;;;;;1.63;1.50;;;26.40;40.80;;;;;;5088925;28;20405;-83
2022/07/28 05:01:06;;;;;;;2.80;1.70;;;26.40;40.80;;;;;;5101002;28;20421;-82
2022/07/28 05:03:39;;;;;;;3.97;1.37;;;26.40;40.90;;;;;;5067079;28;20428;-82
2022/07/28 05:06:08;;;;;;;2.00;1.40;;;26.40;40.80;;;;;;5051588;28;20424;-82
2022/07/28 05:08:36;;;;;;;2.33;1.50;;;26.50;40.90;;;;;;5064656;28;20453;-83
2022/07/28 05:11:08;;;;;;;3.10;1.80;;;26.50;40.90;;;;;;5070585;28;20472;-82
2022/07/28 05:13:35;;;;;;;1.53;1.20;;;26.40;40.90;;;;;;5071524;28;20850;-83
2022/07/28 05:16:13;;;;;;;2.33;1.13;;;26.50;41.00;;;;;;5070351;28;20429;-82
2022/07/28 05:18:41;;;;;;;5.23;1.40;;;26.50;41.00;;;;;;5062389;28;20413;-83
2022/07/28 05:21:11;;;;;;;2.13;1.40;;;26.50;40.90;;;;;;5092119;28;20409;-82
2022/07/28 05:23:47;;;;;;;2.83;1.50;;;26.50;40.90;;;;;;5092777;28;20385;-82
2022/07/28 05:26:15;;;;;;;1.90;1.50;;;26.50;40.90;;;;;;5092646;28;20400;-82
2022/07/28 05:28:41;;;;;;;4.50;1.37;;;26.50;40.90;;;;;;5074958;28;20467;-82
2022/07/28 05:31:09;;;;;;;3.97;1.67;;;26.50;40.90;;;;;;5074564;28;20416;-82
2022/07/28 05:33:38;;;;;;;3.20;1.37;;;26.50;40.90;;;;;;5092268;28;20432;-83
2022/07/28 05:36:06;;;;;;;1.77;1.30;;;26.50;40.90;;;;;;5075086;28;20420;-82
2022/07/28 05:38:37;;;;;;;2.10;1.17;;;26.50;40.90;;;;;;5058649;28;20448;-83
2022/07/28 05:41:06;;;;;;;1.73;1.50;;;26.50;40.80;;;;;;5077051;28;20547;-82
2022/07/28 05:43:36;;;;;;;2.17;1.70;;;26.50;40.80;;;;;;5062180;28;20441;-83
2022/07/28 05:46:03;;;;;;;3.00;1.77;;;26.50;40.80;;;;;;5094806;28;20400;-82
2022/07/28 05:48:33;;;;;;;2.33;1.30;;;26.50;40.80;;;;;;5076734;28;20452;-83
2022/07/28 05:51:04;;;;;;;2.07;1.80;;;26.50;40.90;;;;;;5078293;28;20435;-83
2022/07/28 05:53:34;;;;;;;2.70;1.60;;;26.50;40.90;;;;;;5061992;28;20415;-82
2022/07/28 05:56:05;;;;;;;1.83;1.50;;;26.50;40.90;;;;;;5077728;28;20440;-82
2022/07/28 05:58:34;;;;;;;2.63;1.70;;;26.50;40.90;;;;;;5078864;28;20416;-83
2022/07/28 06:01:06;;;;;;;3.97;2.20;;;26.50;41.00;;;;;;5079323;28;20443;-83
2022/07/28 06:03:33;;;;;;;2.33;1.70;;;26.50;41.00;;;;;;5078365;28;20409;-82
2022/07/28 06:06:01;;;;;;;2.20;1.40;;;26.50;41.00;;;;;;5078648;28;20497;-83
2022/07/28 06:08:36;;;;;;;2.13;1.40;;;26.50;41.00;;;;;;5095629;28;20456;-82
2022/07/28 06:11:13;;;;;;;3.83;1.90;;;26.50;41.00;;;;;;5077853;28;20395;-83
2022/07/28 06:13:39;;;;;;;1.77;1.50;;;26.50;41.00;;;;;;5077787;28;20409;-83
2022/07/28 06:16:07;;;;;;;2.57;1.33;;;26.50;41.00;;;;;;5077799;28;20474;-83
2022/07/28 06:18:37;;;;;;;1.77;1.50;;;26.50;41.00;;;;;;5061571;28;20413;-83
2022/07/28 06:21:05;;;;;;;1.77;1.57;;;26.50;41.00;;;;;;5095019;28;20397;-83
2022/07/28 06:23:31;;;;;;;3.23;1.90;;;26.50;40.90;;;;;;5076670;28;20409;-83
2022/07/28 06:25:57;;;;;;;2.17;1.97;;;26.50;41.00;;;;;;5059778;28;20424;-83
2022/07/28 06:28:24;;;;;;;1.60;1.43;;;26.50;41.00;;;;;;5077707;28;20448;-83
2022/07/28 06:30:50;;;;;;;2.03;1.87;;;26.50;41.10;;;;;;5078174;28;20438;-83
2022/07/28 06:33:19;;;;;;;2.30;1.40;;;26.50;41.00;;;;;;5077386;28;20461;-82
2022/07/28 06:35:47;;;;;;;3.03;2.00;;;26.60;41.10;;;;;;5095009;28;20469;-82
2022/07/28 06:38:13;;;;;;;8.10;2.30;;;26.60;41.10;;;;;;5077311;28;20428;-82
2022/07/28 06:40:43;;;;;;;2.07;1.33;;;26.60;41.10;;;;;;5076538;28;20421;-82
2022/07/28 06:43:13;;;;;;;3.30;1.80;;;26.60;41.10;;;;;;5076746;28;20424;-83
2022/07/28 06:45:47;;;;;;;1.93;1.60;;;26.60;41.10;;;;;;5094344;28;20416;-83
2022/07/28 06:48:13;;;;;;;2.20;1.47;;;26.60;41.10;;;;;;5060788;28;20520;-83
2022/07/28 06:50:40;;;;;;;2.23;1.40;;;26.60;40.90;;;;;;5076931;28;20405;-83
2022/07/28 06:53:10;;;;;;;2.00;1.50;;;26.60;41.50;;;;;;5076546;28;20504;-83
2022/07/28 06:55:40;;;;;;;1.73;1.23;;;26.60;40.80;;;;;;5043853;28;20417;-84
2022/07/28 06:58:06;;;;;;;5.10;2.00;;;26.60;40.90;;;;;;5076521;28;20480;-83
2022/07/28 07:00:42;;;;;;;2.33;1.60;;;26.60;40.70;;;;;;5094382;28;20405;-82
2022/07/28 07:03:09;;;;;;;2.00;1.67;;;26.60;40.70;;;;;;5077109;28;20408;-83
2022/07/28 07:05:38;;;;;;;1.80;1.30;;;26.50;41.30;;;;;;5075686;28;20480;-82
2022/07/28 07:08:05;;;;;;;1.73;1.50;;;26.60;40.80;;;;;;5075861;28;20485;-83
2022/07/28 07:10:35;;;;;;;3.73;1.50;;;26.50;40.80;;;;;;5076322;28;20409;-82
2022/07/28 07:13:31;;;;;;;2.43;1.53;;;26.50;40.70;;;;;;5093754;28;20416;-82
2022/07/28 07:15:59;;;;;;;2.33;1.50;;;26.50;40.70;;;;;;5094083;28;20392;-82
2022/07/28 07:18:27;;;;;;;2.30;1.63;;;26.50;40.70;;;;;;5076508;28;20409;-82
2022/07/28 07:20:55;;;;;;;3.87;1.50;;;26.50;40.70;;;;;;5076514;28;20472;-83
2022/07/28 07:23:24;;;;;;;1.50;1.33;;;26.50;40.70;;;;;;5093929;28;20423;-82
2022/07/28 07:25:59;;;;;;;3.60;1.40;;;26.50;40.70;;;;;;5094488;28;20400;-82
2022/07/28 07:28:35;;;;;;;2.30;1.20;;;26.50;40.80;;;;;;5073245;28;20551;-82
2022/07/28 07:31:03;;;;;;;2.70;1.50;;;26.50;40.70;;;;;;5078195;28;20417;-81
2022/07/28 07:33:41;;;;;;;1.40;1.30;;;26.50;40.70;;;;;;5075713;28;20493;-81
2022/07/28 07:36:13;;;;;;;2.60;1.60;;;26.50;40.70;;;;;;5074185;28;20408;-81
2022/07/28 07:38:46;;;;;;;1.90;1.30;;;26.50;40.70;;;;;;5076193;28;20408;-82
2022/07/28 07:41:13;;;;;;;2.40;1.67;;;26.50;40.60;;;;;;5075946;28;20397;-82
2022/07/28 07:43:40;;;;;;;1.57;1.40;;;26.50;40.60;;;;;;5076367;28;20435;-82
2022/07/28 07:46:14;;;;;;;3.27;1.27;;;26.50;40.60;;;;;;5076398;28;20437;-82
2022/07/28 07:48:43;;;;;;;3.80;1.40;;;26.50;40.60;;;;;;5060492;28;20486;-82
2022/07/28 07:51:15;;;;;;;1.70;1.30;;;26.50;40.60;;;;;;5076308;28;20401;-83
2022/07/28 07:53:42;;;;;;;4.07;1.30;;;26.50;40.60;;;;;;5092844;28;20403;-82
2022/07/28 07:56:12;;;;;;;2.20;1.30;;;26.50;40.70;;;;;;5075227;28;20400;-83
2022/07/28 07:58:46;;;;;;;1.50;1.30;;;26.50;40.70;;;;;;5074590;28;20413;-82
2022/07/28 08:01:12;;;;;;;2.20;1.63;;;26.50;40.80;;;;;;5073716;28;20408;-82
2022/07/28 08:03:39;;;;;;;1.53;1.23;;;26.50;40.90;;;;;;5110042;28;20717;-83
2022/07/28 08:06:09;;;;;;;1.67;1.40;;;26.50;40.90;;;;;;5078381;28;20416;-83
2022/07/28 08:08:37;;;;;;;1.60;1.50;;;26.50;40.80;;;;;;5093646;28;20488;-83
2022/07/28 08:11:07;;;;;;;2.07;1.27;;;26.50;40.70;;;;;;5075173;28;20425;-83
2022/07/28 08:13:36;;;;;;;2.67;1.47;;;26.50;40.60;;;;;;5074844;28;20416;-83
2022/07/28 08:16:03;;;;;;;2.30;1.50;;;26.50;40.70;;;;;;5068663;28;20492;-82
2022/07/28 08:18:35;;;;;;;1.50;1.37;;;26.60;40.80;;;;;;5059230;28;20417;-82
2022/07/28 08:21:02;;;;;;;2.37;1.40;;;26.60;40.80;;;;;;5074961;28;20416;-82
2022/07/28 08:23:28;;;;;;;2.07;1.43;;;26.60;40.80;;;;;;5086228;28;20417;-82
2022/07/28 08:26:04;;;;;;;1.60;1.30;;;26.60;40.70;;;;;;5081533;28;20419;-84
2022/07/28 08:28:34;;;;;;;2.53;1.50;;;26.60;40.80;;;;;;5087571;28;20459;-87
2022/07/28 08:34:16;;;;;;;2.97;1.40;;;26.60;40.90;;;;;;5075774;28;20421;-87
2022/07/28 08:36:56;;;;;;;2.80;1.40;;;26.60;40.90;;;;;;5073765;28;20423;-84
2022/07/28 08:39:26;;;;;;;3.00;1.57;;;26.60;40.80;;;;;;5056621;28;20436;-84
2022/07/28 08:42:43;;;;;;;1.60;1.30;;;26.60;40.70;;;;;;5074655;28;20483;-85
2022/07/28 08:45:13;;;;;;;1.57;1.47;;;26.60;40.70;;;;;;4980675;28;20460;-83
2022/07/28 08:48:13;;;;;;;2.07;1.67;;;26.60;40.70;;;;;;4983823;28;20471;-81
2022/07/28 08:50:43;;;;;;;1.43;1.23;;;26.60;40.60;;;;;;4985599;28;20428;-82
2022/07/28 08:53:11;;;;;;;2.40;1.60;;;26.60;40.40;;;;;;4975367;28;20425;-82
2022/07/28 08:55:38;;;;;;;1.60;1.50;;;26.60;40.50;;;;;;4981318;28;20432;-82
2022/07/28 08:58:13;;;;;;;3.00;1.27;;;26.60;40.50;;;;;;4991384;28;20427;-83
2022/07/28 09:01:01;;;;;;;1.57;1.20;;;26.60;40.50;;;;;;4975345;28;20808;-83
2022/07/28 09:03:29;;;;;;;1.20;1.00;;;26.70;40.50;;;;;;4987402;28;20516;-82
2022/07/28 09:06:02;;;;;;;2.27;1.50;;;26.70;40.40;;;;;;4982926;28;20418;-83
2022/07/28 09:11:57;;;;;;;2.60;1.30;;;26.70;40.40;;;;;;4985563;28;20410;-82
2022/07/28 09:14:26;;;;;;;1.70;1.50;;;26.60;40.40;;;;;;4977838;28;20438;-82
2022/07/28 09:16:54;;;;;;;1.80;1.50;;;26.70;40.20;;;;;;5086249;28;20461;-82
2022/07/28 09:19:21;;;;;;;3.10;1.57;;;26.60;40.30;;;;;;5057447;28;20417;-82
2022/07/28 09:21:52;;;;;;;1.60;1.50;;;26.70;40.20;;;;;;5076074;28;20412;-83
2022/07/28 09:24:45;;;;;;;1.87;1.53;;;26.70;40.30;;;;;;5058229;28;20417;-82
2022/07/28 09:27:50;;;;;;;1.87;1.57;;;26.70;40.20;;;;;;5074224;28;20459;-82
2022/07/28 09:30:31;;;;;;;1.77;1.30;;;26.70;40.30;;;;;;5076905;28;20403;-82
2022/07/28 09:33:31;;;;;;;2.10;1.50;;;26.70;40.40;;;;;;5058734;28;20429;-83
2022/07/28 09:35:59;;;;;;;1.80;1.33;;;26.70;40.40;;;;;;5058390;28;20410;-82
2022/07/28 09:38:29;;;;;;;1.83;1.60;;;26.70;40.60;;;;;;5057901;28;20425;-82
2022/07/28 09:40:57;;;;;;;1.43;1.33;;;26.70;40.60;;;;;;5058519;28;20421;-82
2022/07/28 09:43:35;;;;;;;2.00;1.60;;;26.70;40.60;;;;;;5058123;28;20440;-82
2022/07/28 09:46:23;;;;;;;2.50;1.57;;;26.70;40.60;;;;;;5076490;28;20438;-81
2022/07/28 09:48:49;;;;;;;2.23;1.57;;;26.70;40.50;;;;;;5075610;28;20453;-83
2022/07/28 09:51:23;;;;;;;2.93;1.77;;;26.70;40.60;;;;;;5058051;28;20449;-83
2022/07/28 09:54:05;;;;;;;2.30;1.47;;;26.70;40.60;;;;;;5058129;28;20181;-83
2022/07/28 09:56:37;;;;;;;1.90;1.70;;;26.70;40.50;;;;;;5057399;28;20413;-82
2022/07/28 09:59:06;;;;;;;2.70;1.50;;;26.80;40.60;;;;;;5077042;28;20378;-82
2022/07/28 10:01:36;;;;;;;2.10;1.90;;;26.70;40.50;;;;;;5075675;28;20409;-82
2022/07/28 10:04:04;;;;;;;4.37;1.60;;;26.80;40.50;;;;;;5058597;28;20471;-82
2022/07/28 10:07:20;;;;;;;1.70;1.43;;;26.80;40.60;;;;;;5075044;28;20413;-85
2022/07/28 10:10:10;;;;;;;2.20;1.87;;;26.80;40.60;;;;;;5074796;28;20410;-83
2022/07/28 10:19:28;;;;;;;3.67;1.67;;;26.80;40.50;;;;;;5075041;28;20440;-82
2022/07/28 10:21:56;;;;;;;2.43;1.97;;;26.80;40.60;;;;;;5075895;28;20386;-82
2022/07/28 10:24:24;;;;;;;2.20;1.50;;;26.80;40.60;;;;;;5091570;28;20441;-82
2022/07/28 10:26:53;;;;;;;2.53;1.57;;;26.80;40.50;;;;;;5075193;28;20406;-83
2022/07/28 10:29:21;;;;;;;2.80;1.40;;;26.80;40.50;;;;;;5058554;28;20413;-83
2022/07/28 10:32:15;;;;;;;1.93;1.63;;;26.80;40.50;;;;;;5057766;28;20424;-82
2022/07/28 10:35:06;;;;;;;2.43;1.87;;;26.80;40.50;;;;;;5042131;28;20482;-83
2022/07/28 10:37:46;;;;;;;2.00;1.67;;;26.90;40.50;;;;;;5057548;28;20429;-82
2022/07/28 10:40:19;;;;;;;3.23;1.90;;;26.90;40.50;;;;;;5058277;28;20429;-82
2022/07/28 10:42:46;;;;;;;2.23;1.67;;;26.80;40.50;;;;;;5058014;28;20429;-82
2022/07/28 10:45:14;;;;;;;2.03;1.83;;;26.90;40.50;;;;;;5074254;28;20420;-82
2022/07/28 10:47:47;;;;;;;2.13;1.43;;;26.90;40.50;;;;;;5075771;28;20470;-83
2022/07/28 10:50:18;;;;;;;1.83;1.50;;;26.90;40.50;;;;;;5074210;28;20412;-82
2022/07/28 10:53:19;;;;;;;2.20;1.80;;;26.90;40.50;;;;;;5075342;28;20402;-83
2022/07/28 10:55:50;;;;;;;2.57;1.90;;;26.90;40.50;;;;;;5056736;28;20410;-83
2022/07/28 10:58:38;;;;;;;4.10;2.87;;;26.90;40.50;;;;;;5057806;28;20444;-82
2022/07/28 11:01:09;;;;;;;9.57;5.03;;;26.90;40.50;;;;;;5057971;28;20426;-82
2022/07/28 11:07:21;;;;;;;12.40;5.20;;;26.90;40.50;;;;;;5033414;28;20619;-82
2022/07/28 11:09:52;;;;;;;7.57;4.67;;;26.90;40.50;;;;;;5017223;28;20455;-83
2022/07/28 11:13:04;;;;;;;6.80;5.50;;;26.90;40.50;;;;;;5033770;28;20415;-83
2022/07/28 11:15:38;;;;;;;7.13;4.43;;;26.90;40.50;;;;;;5009226;28;20412;-82
2022/07/28 11:18:15;;;;;;;7.23;4.80;;;26.90;40.50;;;;;;5033180;28;20469;-82
2022/07/28 11:20:55;;;;;;;5.10;4.27;;;26.90;40.60;;;;;;5016421;28;20407;-82
2022/07/28 11:23:53;;;;;;;8.83;4.53;;;26.90;40.60;;;;;;5016945;28;20429;-81
2022/07/28 11:26:33;;;;;;;9.70;4.90;;;26.90;40.60;;;;;;5016235;28;20479;-82
2022/07/28 11:28:59;;;;;;;7.37;4.67;;;26.90;41.30;;;;;;5001855;28;20490;-82
2022/07/28 11:32:04;;;;;;;5.90;4.30;;;26.90;40.70;;;;;;5033908;28;20491;-82
2022/07/28 11:35:08;;;;;;;6.73;4.40;;;26.90;40.70;;;;;;4974587;28;20442;-82
2022/07/28 11:38:41;;;;;;;4.53;3.90;;;26.90;40.70;;;;;;4959978;29;20434;-82
2022/07/28 11:41:30;;;;;;;4.47;3.07;;;26.90;40.70;;;;;;4935821;29;20427;-83
2022/07/28 11:44:35;;;;;;;4.20;3.17;;;26.90;40.70;;;;;;4918751;29;20432;-82
2022/07/28 11:47:37;;;;;;;5.17;3.40;;;26.90;40.70;;;;;;4886219;29;20472;-82
2022/07/28 11:50:23;;;;;;;6.50;3.30;;;26.90;40.70;;;;;;4901566;29;20435;-82
2022/07/28 12:08:53;;;;;;;3.10;2.70;;;26.90;40.70;;;;;;4917578;29;20464;-82
2022/07/28 12:11:33;;;;;;;5.80;2.97;;;26.90;40.70;;;;;;4937320;28;20435;-82
2022/07/28 12:16:55;;;;;;;3.40;2.50;;;26.90;40.80;;;;;;5034273;28;20421;-82
2022/07/28 12:20:00;;;;;;;2.77;2.33;;;26.90;40.90;;;;;;5056748;28;20412;-82
2022/07/28 12:22:36;;;;;;;3.13;2.43;;;27.00;40.90;;;;;;5073992;28;20386;-83
2022/07/28 12:25:08;;;;;;;3.63;2.57;;;26.90;40.90;;;;;;5056882;28;20398;-83
2022/07/28 12:27:49;;;;;;;3.43;3.00;;;27.00;40.90;;;;;;5072468;28;20453;-83
2022/07/28 12:30:32;;;;;;;3.13;2.80;;;27.00;41.00;;;;;;5057205;28;20401;-82
2022/07/28 12:33:41;;;;;;;5.60;3.20;;;27.00;41.00;;;;;;5072014;28;20406;-82
2022/07/28 12:36:18;;;;;;;2.90;2.23;;;27.00;41.00;;;;;;5056716;28;20501;-82
2022/07/28 12:38:46;;;;;;;3.23;2.77;;;27.00;41.00;;;;;;5073214;28;20405;-83
2022/07/28 12:41:15;;;;;;;2.50;2.30;;;27.00;41.00;;;;;;5074171;28;20690;-83
2022/07/28 12:43:53;;;;;;;2.77;2.57;;;27.00;41.00;;;;;;5056234;28;20422;-83
2022/07/28 12:46:31;;;;;;;3.70;2.60;;;27.10;41.00;;;;;;5073690;28;20420;-83
2022/07/28 12:48:59;;;;;;;4.53;2.80;;;27.00;40.90;;;;;;5074267;28;20513;-82
2022/07/28 12:51:44;;;;;;;3.10;2.70;;;27.10;40.90;;;;;;5077119;28;20432;-82
2022/07/28 12:54:12;;;;;;;4.20;3.00;;;27.10;40.90;;;;;;5078074;28;20853;-82
2022/07/28 12:56:59;;;;;;;3.50;3.20;;;27.10;40.90;;;;;;5060390;28;20416;-82
2022/07/28 12:59:35;;;;;;;3.10;2.80;;;27.10;40.80;;;;;;5077424;28;20463;-82
2022/07/28 13:02:03;;;;;;;3.00;2.17;;;27.10;40.90;;;;;;5044689;28;20455;-83
2022/07/28 13:04:48;;;;;;;3.70;2.50;;;27.10;40.90;;;;;;5060474;28;20413;-83
2022/07/28 13:07:29;;;;;;;3.40;3.10;;;27.10;40.90;;;;;;5077594;28;20449;-82
2022/07/28 13:10:02;;;;;;;5.83;2.80;;;27.10;41.00;;;;;;5058410;28;20410;-81
2022/07/28 13:12:34;;;;;;;3.60;2.60;;;27.10;40.90;;;;;;5092409;28;20412;-82
2022/07/28 13:15:38;;;;;;;3.70;3.00;;;27.10;40.90;;;;;;5059323;28;20464;-82
2022/07/28 13:18:11;;;;;;;3.20;2.40;;;27.10;40.90;;;;;;5016689;28;20444;-82
2022/07/28 13:20:52;;;;;;;3.80;2.80;;;27.10;41.00;;;;;;5060093;28;20409;-82
2022/07/28 13:23:39;;;;;;;3.97;3.30;;;27.10;40.90;;;;;;5092718;28;20455;-82
2022/07/28 13:26:07;;;;;;;4.70;3.00;;;27.10;40.90;;;;;;5043290;28;20889;-83
2022/07/28 13:28:45;;;;;;;3.63;3.00;;;27.10;40.90;;;;;;5058796;28;20445;-83
2022/07/28 13:31:34;;;;;;;4.67;3.37;;;27.10;40.90;;;;;;5075852;28;20421;-81
2022/07/28 13:34:12;;;;;;;3.13;2.83;;;27.10;40.90;;;;;;5059336;28;20433;-81
2022/07/28 13:36:54;;;;;;;3.60;2.70;;;27.10;40.90;;;;;;5059682;28;20413;-82
2022/07/28 13:39:26;;;;;;;3.23;2.90;;;27.10;40.90;;;;;;5076043;28;20476;-83
2022/07/28 13:41:58;;;;;;;3.83;2.77;;;27.10;40.80;;;;;;5059060;28;20453;-82
2022/07/28 13:44:27;;;;;;;4.77;2.87;;;27.10;40.80;;;;;;5076569;28;20394;-81
2022/07/28 13:47:08;;;;;;;5.73;2.90;;;27.20;40.90;;;;;;5058730;28;20449;-81
2022/07/28 13:49:37;;;;;;;4.13;2.90;;;27.20;40.80;;;;;;5061652;28;20424;-82
2022/07/28 13:52:20;;;;;;;6.57;2.93;;;27.20;40.70;;;;;;5079519;28;20415;-81
2022/07/28 13:54:50;;;;;;;4.17;2.43;;;27.20;40.70;;;;;;5066277;28;20410;-82
2022/07/28 13:57:22;;;;;;;3.67;2.70;;;27.20;40.50;;;;;;5103308;28;20432;-82
2022/07/28 13:59:50;;;;;;;3.53;3.10;;;27.20;40.50;;;;;;5075041;28;20425;-83